Time;durP1;ratioP1;P1;durP2;ratioP2;P2;SDS_P1;SDS_P2;PMS_P1;PMS_P2;Temp;Humidity;BMP_temperature;BMP_pressure;BME280_temperature;BME280_humidity;BME280_pressure;Samples;Min_cycle;Max_cycle;Signal;HPM_P1;HPM_P2
2022/04/04 00:00:09;;;;;;;4.53;3.20;;;;;;;;;;5072476;28;20243;-54
2022/04/04 00:02:35;;;;;;;3.60;3.07;;;;;;;;;;5072884;28;20462;-54
2022/04/04 00:05:01;;;;;;;3.80;3.40;;;;;;;;;;5072499;28;20484;-55
2022/04/04 00:07:28;;;;;;;5.93;3.20;;;;;;;;;;5072912;28;20202;-54
2022/04/04 00:09:55;;;;;;;4.10;3.23;;;;;;;;;;5072512;28;20496;-53
2022/04/04 00:12:21;;;;;;;5.07;3.60;;;;;;;;;;5071752;28;20541;-53
2022/04/04 00:14:47;;;;;;;3.50;3.20;;;;;;;;;;5067124;28;20802;-53
2022/04/04 00:17:14;;;;;;;3.07;2.83;;;;;;;;;;5072185;28;20453;-53
2022/04/04 00:19:43;;;;;;;3.33;2.97;;;;;;;;;;5072100;28;20499;-54
2022/04/04 00:22:09;;;;;;;4.07;3.43;;;;;;;;;;5072038;28;20464;-55
2022/04/04 00:24:36;;;;;;;3.70;3.40;;;;;;;;;;5069802;28;20544;-55
2022/04/04 00:27:03;;;;;;;4.73;2.90;;;;;;;;;;5071943;28;20987;-55
2022/04/04 00:29:29;;;;;;;4.20;3.37;;;;;;;;;;5072000;28;20434;-54
2022/04/04 00:31:55;;;;;;;4.87;3.03;;;;;;;;;;5072016;28;20434;-54
2022/04/04 00:34:21;;;;;;;4.50;3.47;;;;;;;;;;5071992;28;21127;-56
2022/04/04 00:36:47;;;;;;;4.83;3.30;;;;;;;;;;5072151;28;20438;-56
2022/04/04 00:39:19;;;;;;;4.60;3.10;;;;;;;;;;5071911;28;20223;-55
2022/04/04 00:41:46;;;;;;;5.07;3.23;;;;;;;;;;5072211;28;20605;-55
2022/04/04 00:44:12;;;;;;;3.50;3.20;;;;;;;;;;5072228;28;20450;-55
2022/04/04 00:46:40;;;;;;;5.13;3.67;;;;;;;;;;5071925;28;20469;-56
2022/04/04 00:49:06;;;;;;;4.40;3.50;;;;;;;;;;5071780;28;20709;-56
2022/04/04 00:51:32;;;;;;;4.03;3.20;;;;;;;;;;5072112;28;20790;-55
2022/04/04 00:53:58;;;;;;;3.60;3.00;;;;;;;;;;5071836;28;20441;-55
2022/04/04 00:56:26;;;;;;;6.20;3.50;;;;;;;;;;5071954;28;20441;-55
2022/04/04 00:58:54;;;;;;;4.10;3.40;;;;;;;;;;5071757;28;20446;-55
2022/04/04 01:01:22;;;;;;;4.67;3.30;;;;;;;;;;5071790;28;20487;-57
2022/04/04 01:03:48;;;;;;;5.17;4.10;;;;;;;;;;5072030;28;20442;-56
2022/04/04 01:06:14;;;;;;;4.50;3.50;;;;;;;;;;5072011;28;20804;-56
2022/04/04 01:08:40;;;;;;;3.93;3.13;;;;;;;;;;5071852;28;20923;-56
2022/04/04 01:11:06;;;;;;;6.47;3.80;;;;;;;;;;5071852;28;20481;-57
2022/04/04 01:13:32;;;;;;;3.93;3.23;;;;;;;;;;5071814;28;20469;-55
2022/04/04 01:16:00;;;;;;;3.77;3.40;;;;;;;;;;5071657;28;20682;-54
2022/04/04 01:18:26;;;;;;;4.10;3.70;;;;;;;;;;5071687;28;20445;-57
2022/04/04 01:20:52;;;;;;;4.20;3.80;;;;;;;;;;5071647;28;20474;-56
2022/04/04 01:23:22;;;;;;;4.60;3.30;;;;;;;;;;5071609;28;20221;-55
2022/04/04 01:25:49;;;;;;;3.30;3.00;;;;;;;;;;5071685;28;20487;-55
2022/04/04 01:28:15;;;;;;;7.40;4.07;;;;;;;;;;5071520;28;20994;-56
2022/04/04 01:30:42;;;;;;;4.23;3.50;;;;;;;;;;5075721;28;20476;-55
2022/04/04 01:33:08;;;;;;;4.00;3.60;;;;;;;;;;5075609;28;20478;-55
2022/04/04 01:35:38;;;;;;;6.17;3.50;;;;;;;;;;5075654;28;20461;-56
2022/04/04 01:38:04;;;;;;;4.47;3.00;;;;;;;;;;5075339;28;20564;-55
2022/04/04 01:40:30;;;;;;;3.73;3.33;;;;;;;;;;5075494;28;21065;-55
2022/04/04 01:42:57;;;;;;;5.40;3.97;;;;;;;;;;5075692;28;20521;-56
2022/04/04 01:48:09;;;;;;;4.43;3.67;;;;;;;;;;5075280;28;20420;-55
2022/04/04 01:50:36;;;;;;;3.97;3.50;;;;;;;;;;5075311;28;20465;-56
2022/04/04 01:55:47;;;;;;;5.80;3.70;;;;;;;;;;5075233;28;20467;-55
2022/04/04 01:58:14;;;;;;;4.37;3.50;;;;;;;;;;5075097;28;20438;-55
2022/04/04 02:00:40;;;;;;;4.67;3.77;;;;;;;;;;5075288;28;20236;-53
2022/04/04 02:03:06;;;;;;;4.03;3.70;;;;;;;;;;5075016;28;20429;-54
2022/04/04 02:05:32;;;;;;;4.77;3.97;;;;;;;;;;5075048;28;20465;-55
2022/04/04 02:07:58;;;;;;;6.07;3.50;;;;;;;;;;5075073;28;20429;-55
2022/04/04 02:10:25;;;;;;;5.17;3.70;;;;;;;;;;5074683;28;20517;-55
2022/04/04 02:12:51;;;;;;;4.90;3.80;;;;;;;;;;5075002;28;20479;-54
2022/04/04 02:15:19;;;;;;;4.73;4.20;;;;;;;;;;5074823;28;20438;-55
2022/04/04 02:17:45;;;;;;;6.10;3.97;;;;;;;;;;5074745;28;20477;-55
2022/04/04 02:20:11;;;;;;;6.07;3.40;;;;;;;;;;5074043;28;20516;-55
2022/04/04 02:22:37;;;;;;;4.73;4.00;;;;;;;;;;5074637;28;20278;-54
2022/04/04 02:25:03;;;;;;;6.07;4.20;;;;;;;;;;5074557;28;21031;-54
2022/04/04 02:27:29;;;;;;;4.37;3.97;;;;;;;;;;5074417;28;20240;-56
2022/04/04 02:29:57;;;;;;;6.40;4.20;;;;;;;;;;5074282;28;20506;-55
2022/04/04 02:32:24;;;;;;;4.40;3.93;;;;;;;;;;5074391;28;20430;-55
2022/04/04 02:34:50;;;;;;;6.00;4.40;;;;;;;;;;5074596;28;20438;-56
2022/04/04 02:37:16;;;;;;;5.60;4.20;;;;;;;;;;5074767;28;20551;-56
2022/04/04 02:39:42;;;;;;;5.63;3.90;;;;;;;;;;5074043;28;20583;-56
2022/04/04 02:42:09;;;;;;;5.50;4.10;;;;;;;;;;5074290;28;20947;-56
2022/04/04 02:44:34;;;;;;;4.50;3.97;;;;;;;;;;5074435;28;20798;-56
2022/04/04 02:47:01;;;;;;;6.10;4.43;;;;;;;;;;5074515;28;20438;-55
2022/04/04 02:49:31;;;;;;;6.53;4.30;;;;;;;;;;5074269;28;20815;-55
2022/04/04 02:51:57;;;;;;;5.77;4.33;;;;;;;;;;5074179;28;20430;-55
2022/04/04 02:54:23;;;;;;;5.90;4.47;;;;;;;;;;5073960;28;20947;-56
2022/04/04 02:56:49;;;;;;;5.40;4.00;;;;;;;;;;5074036;28;21016;-55
2022/04/04 02:59:16;;;;;;;4.33;3.80;;;;;;;;;;5073922;28;21052;-56
2022/04/04 03:01:48;;;;;;;4.63;4.00;;;;;;;;;;5074087;28;20990;-55
2022/04/04 03:04:14;;;;;;;4.80;4.30;;;;;;;;;;5072627;28;20500;-56
2022/04/04 03:06:41;;;;;;;4.57;3.90;;;;;;;;;;5073992;28;20848;-56
2022/04/04 03:09:08;;;;;;;5.30;4.07;;;;;;;;;;5073802;28;20290;-55
2022/04/04 03:11:34;;;;;;;5.57;4.47;;;;;;;;;;5073892;28;20526;-55
2022/04/04 03:14:00;;;;;;;4.73;4.33;;;;;;;;;;5073884;28;20453;-56
2022/04/04 03:16:26;;;;;;;4.90;4.17;;;;;;;;;;5073963;28;20418;-55
2022/04/04 03:18:55;;;;;;;5.27;4.60;;;;;;;;;;5073650;28;20430;-56
2022/04/04 03:21:21;;;;;;;4.83;4.33;;;;;;;;;;5073397;28;20457;-55
2022/04/04 03:23:49;;;;;;;4.80;4.17;;;;;;;;;;5073446;28;20465;-56
2022/04/04 03:26:15;;;;;;;4.93;4.20;;;;;;;;;;5073513;28;20434;-56
2022/04/04 03:28:41;;;;;;;5.80;4.90;;;;;;;;;;5073398;28;20502;-56
2022/04/04 03:31:07;;;;;;;4.80;4.40;;;;;;;;;;5073401;28;20426;-56
2022/04/04 03:33:34;;;;;;;5.07;4.50;;;;;;;;;;5073415;28;20426;-56
2022/04/04 03:36:00;;;;;;;5.70;5.10;;;;;;;;;;5073428;28;20442;-55
2022/04/04 03:38:27;;;;;;;6.90;5.13;;;;;;;;;;5071898;28;20442;-55
2022/04/04 03:40:54;;;;;;;5.23;4.70;;;;;;;;;;5073132;28;20539;-56
2022/04/04 03:43:20;;;;;;;5.53;4.87;;;;;;;;;;5073108;28;20482;-55
2022/04/04 03:45:46;;;;;;;8.00;5.20;;;;;;;;;;5073276;28;20521;-55
2022/04/04 03:48:13;;;;;;;5.53;5.00;;;;;;;;;;5073167;28;20461;-55
2022/04/04 03:50:39;;;;;;;7.27;5.57;;;;;;;;;;5073017;28;20434;-55
2022/04/04 03:53:06;;;;;;;6.30;5.37;;;;;;;;;;5072230;28;20445;-56
2022/04/04 03:55:33;;;;;;;6.40;5.63;;;;;;;;;;5073006;28;20441;-56
2022/04/04 03:58:02;;;;;;;5.40;4.83;;;;;;;;;;5073037;28;20437;-55
2022/04/04 04:00:29;;;;;;;6.50;5.43;;;;;;;;;;5072979;28;20512;-55
2022/04/04 04:02:55;;;;;;;5.90;5.30;;;;;;;;;;5072710;28;20522;-55
2022/04/04 04:05:21;;;;;;;5.87;5.30;;;;;;;;;;5072650;28;20986;-55
2022/04/04 04:07:48;;;;;;;7.47;5.97;;;;;;;;;;5072653;28;20444;-55
2022/04/04 04:10:14;;;;;;;6.50;5.67;;;;;;;;;;5072666;28;20473;-56
2022/04/04 04:12:40;;;;;;;6.00;5.40;;;;;;;;;;5072578;28;20781;-56
2022/04/04 04:15:08;;;;;;;6.47;5.87;;;;;;;;;;5072450;28;20458;-56
2022/04/04 04:17:34;;;;;;;8.47;5.90;;;;;;;;;;5072476;28;20536;-56
2022/04/04 04:22:46;;;;;;;6.27;5.67;;;;;;;;;;5072520;28;20487;-56
2022/04/04 04:25:14;;;;;;;6.27;5.67;;;;;;;;;;5072375;28;20446;-55
2022/04/04 04:27:41;;;;;;;7.93;5.60;;;;;;;;;;5072041;28;20555;-56
2022/04/04 04:30:09;;;;;;;9.53;6.17;;;;;;;;;;5070623;28;20789;-56
2022/04/04 04:32:35;;;;;;;6.53;5.60;;;;;;;;;;5072030;28;20450;-56
2022/04/04 04:35:01;;;;;;;7.17;6.57;;;;;;;;;;5072206;28;20434;-58
2022/04/04 04:37:27;;;;;;;6.50;5.87;;;;;;;;;;5070816;28;20199;-58
2022/04/04 04:39:54;;;;;;;6.13;5.57;;;;;;;;;;5072078;28;20477;-56
2022/04/04 04:42:20;;;;;;;7.17;5.70;;;;;;;;;;5072347;28;20191;-56
2022/04/04 04:44:46;;;;;;;8.57;5.83;;;;;;;;;;5072322;28;21027;-56
2022/04/04 04:47:15;;;;;;;6.30;5.70;;;;;;;;;;5072034;28;20204;-56
2022/04/04 04:49:41;;;;;;;7.00;5.80;;;;;;;;;;5072104;28;20855;-56
2022/04/04 04:52:07;;;;;;;6.07;5.47;;;;;;;;;;5071918;28;20977;-56
2022/04/04 04:54:33;;;;;;;6.77;5.67;;;;;;;;;;5072090;28;20196;-56
2022/04/04 04:56:59;;;;;;;6.20;5.70;;;;;;;;;;5072183;28;20429;-57
2022/04/04 04:59:25;;;;;;;7.70;6.40;;;;;;;;;;5071861;28;20211;-57
2022/04/04 05:01:51;;;;;;;7.70;6.00;;;;;;;;;;5071982;28;20840;-57
2022/04/04 05:04:19;;;;;;;7.13;6.43;;;;;;;;;;5071922;28;20442;-56
2022/04/04 05:06:49;;;;;;;7.83;6.80;;;;;;;;;;5071978;28;20207;-57
2022/04/04 05:09:15;;;;;;;7.40;6.17;;;;;;;;;;5071724;28;20488;-57
2022/04/04 05:11:41;;;;;;;7.23;6.50;;;;;;;;;;5071680;28;20874;-56
2022/04/04 05:14:09;;;;;;;7.87;6.97;;;;;;;;;;5071750;28;20472;-58
2022/04/04 05:16:35;;;;;;;9.40;7.90;;;;;;;;;;5071602;28;20837;-58
2022/04/04 05:19:03;;;;;;;6.33;5.77;;;;;;;;;;5071717;28;20525;-57
2022/04/04 05:21:30;;;;;;;7.27;6.57;;;;;;;;;;5071606;28;20249;-57
2022/04/04 05:23:56;;;;;;;8.53;6.50;;;;;;;;;;5071532;28;20485;-57
2022/04/04 05:26:22;;;;;;;6.57;5.87;;;;;;;;;;5071569;28;20461;-58
2022/04/04 05:28:48;;;;;;;6.83;6.20;;;;;;;;;;5071340;28;20246;-57
2022/04/04 05:31:14;;;;;;;7.90;6.27;;;;;;;;;;5071596;28;20200;-57
2022/04/04 05:33:40;;;;;;;7.97;7.03;;;;;;;;;;5071595;28;20192;-57
2022/04/04 05:36:07;;;;;;;7.33;6.63;;;;;;;;;;5071537;28;20426;-57
2022/04/04 05:38:34;;;;;;;8.53;6.27;;;;;;;;;;5071516;28;20434;-57
2022/04/04 05:41:00;;;;;;;7.73;6.60;;;;;;;;;;5071736;28;20477;-57
2022/04/04 05:43:27;;;;;;;8.80;6.60;;;;;;;;;;5071534;28;20438;-57
2022/04/04 05:45:53;;;;;;;7.97;6.17;;;;;;;;;;5071600;28;20438;-57
2022/04/04 05:48:19;;;;;;;7.20;6.50;;;;;;;;;;5071229;28;20426;-57
2022/04/04 05:50:45;;;;;;;7.80;7.00;;;;;;;;;;5071608;28;20426;-57
2022/04/04 05:53:11;;;;;;;8.27;7.43;;;;;;;;;;5071103;28;20434;-57
2022/04/04 05:55:38;;;;;;;9.37;7.33;;;;;;;;;;5071470;28;20203;-58
2022/04/04 05:58:04;;;;;;;7.97;7.10;;;;;;;;;;5071312;28;20434;-56
2022/04/04 06:00:30;;;;;;;8.03;6.67;;;;;;;;;;5071196;28;20972;-56
2022/04/04 06:02:56;;;;;;;7.57;6.87;;;;;;;;;;5071053;28;21011;-56
2022/04/04 06:05:22;;;;;;;7.83;7.03;;;;;;;;;;5071184;28;20475;-56
2022/04/04 06:07:48;;;;;;;8.07;7.27;;;;;;;;;;5071205;28;20940;-58
2022/04/04 06:10:16;;;;;;;7.70;6.90;;;;;;;;;;5071084;28;20483;-56
2022/04/04 06:12:44;;;;;;;8.87;7.47;;;;;;;;;;5071333;28;20434;-57
2022/04/04 06:15:15;;;;;;;8.00;6.43;;;;;;;;;;5072237;28;20442;-57
2022/04/04 06:17:42;;;;;;;8.50;6.53;;;;;;;;;;5074566;28;20504;-58
2022/04/04 06:20:09;;;;;;;8.83;7.10;;;;;;;;;;5074398;28;20480;-58
2022/04/04 06:22:36;;;;;;;6.77;6.07;;;;;;;;;;5074492;28;20430;-57
2022/04/04 06:25:02;;;;;;;7.37;6.50;;;;;;;;;;5074456;28;20478;-57
2022/04/04 06:27:28;;;;;;;8.83;6.83;;;;;;;;;;5074415;28;20606;-57
2022/04/04 06:29:56;;;;;;;11.07;6.67;;;;;;;;;;5074577;28;20463;-57
2022/04/04 06:32:24;;;;;;;6.73;6.00;;;;;;;;;;5074190;28;20419;-56
2022/04/04 06:34:50;;;;;;;7.30;5.97;;;;;;;;;;5074290;28;20920;-57
2022/04/04 06:37:16;;;;;;;7.20;6.50;;;;;;;;;;5074028;28;20457;-56
2022/04/04 06:39:42;;;;;;;8.13;6.33;;;;;;;;;;5074333;28;20689;-56
2022/04/04 06:42:08;;;;;;;7.30;6.60;;;;;;;;;;5074341;28;20428;-56
2022/04/04 06:44:34;;;;;;;8.97;6.80;;;;;;;;;;5074382;28;20250;-57
2022/04/04 06:47:01;;;;;;;7.00;5.87;;;;;;;;;;5074291;28;20457;-56
2022/04/04 06:49:27;;;;;;;6.60;5.97;;;;;;;;;;5074271;28;20196;-56
2022/04/04 06:51:53;;;;;;;6.77;5.50;;;;;;;;;;5074260;28;20510;-56
2022/04/04 06:54:20;;;;;;;10.33;6.27;;;;;;;;;;5074106;28;20920;-57
2022/04/04 06:56:49;;;;;;;8.07;6.30;;;;;;;;;;5074112;28;20199;-56
2022/04/04 06:59:18;;;;;;;5.83;5.33;;;;;;;;;;5073986;28;20445;-57
2022/04/04 07:01:44;;;;;;;5.90;5.20;;;;;;;;;;5074220;28;20440;-57
2022/04/04 07:04:12;;;;;;;8.37;5.43;;;;;;;;;;5073497;28;20440;-59
2022/04/04 07:06:38;;;;;;;6.10;5.50;;;;;;;;;;5073741;28;20434;-56
2022/04/04 07:09:04;;;;;;;5.73;5.20;;;;;;;;;;5073780;28;20438;-56
2022/04/04 07:11:30;;;;;;;5.70;5.03;;;;;;;;;;5074083;28;20943;-57
2022/04/04 07:13:56;;;;;;;6.17;5.57;;;;;;;;;;5073880;28;20196;-56
2022/04/04 07:16:22;;;;;;;5.83;5.23;;;;;;;;;;5073611;28;20199;-56
2022/04/04 07:18:49;;;;;;;7.47;5.77;;;;;;;;;;5073726;28;20435;-57
2022/04/04 07:21:16;;;;;;;8.07;5.57;;;;;;;;;;5073524;28;20561;-58
2022/04/04 07:23:42;;;;;;;5.57;4.93;;;;;;;;;;5073397;28;20879;-56
2022/04/04 07:26:08;;;;;;;5.00;4.57;;;;;;;;;;5072375;28;20438;-55
2022/04/04 07:28:34;;;;;;;8.30;5.00;;;;;;;;;;5073034;28;20932;-57
2022/04/04 07:31:00;;;;;;;6.07;4.97;;;;;;;;;;5073502;28;20275;-55
2022/04/04 07:33:26;;;;;;;5.83;4.90;;;;;;;;;;5073191;28;20587;-55
2022/04/04 07:35:52;;;;;;;6.17;4.73;;;;;;;;;;5073427;28;20432;-55
2022/04/04 07:38:20;;;;;;;6.70;5.10;;;;;;;;;;5073017;28;20199;-56
2022/04/04 07:40:46;;;;;;;5.97;4.70;;;;;;;;;;5073244;28;20485;-56
2022/04/04 07:43:12;;;;;;;5.83;5.30;;;;;;;;;;5073244;28;20438;-55
2022/04/04 07:45:39;;;;;;;6.47;4.83;;;;;;;;;;5072974;28;20457;-55
2022/04/04 07:48:05;;;;;;;5.30;4.80;;;;;;;;;;5073113;28;20195;-55
2022/04/04 07:50:31;;;;;;;5.57;4.97;;;;;;;;;;5072997;28;20453;-54
2022/04/04 07:52:57;;;;;;;7.13;4.90;;;;;;;;;;5072885;28;20929;-54
2022/04/04 07:55:24;;;;;;;4.90;4.40;;;;;;;;;;5072742;28;20434;-50
2022/04/04 07:57:50;;;;;;;5.80;4.57;;;;;;;;;;5073016;28;20465;-49
2022/04/04 08:00:17;;;;;;;8.03;4.70;;;;;;;;;;5072695;28;20548;-54
2022/04/04 08:02:44;;;;;;;6.53;4.60;;;;;;;;;;5072904;28;20249;-54
2022/04/04 08:05:10;;;;;;;5.17;4.67;;;;;;;;;;5067300;28;20442;-54
2022/04/04 08:07:37;;;;;;;6.27;4.70;;;;;;;;;;5071726;28;20434;-53
2022/04/04 08:10:03;;;;;;;5.10;4.60;;;;;;;;;;5072774;28;20940;-54
2022/04/04 08:12:31;;;;;;;4.77;4.30;;;;;;;;;;5072485;28;20446;-53
2022/04/04 08:14:57;;;;;;;5.33;4.53;;;;;;;;;;5072683;28;20800;-52
2022/04/04 08:17:23;;;;;;;5.80;5.27;;;;;;;;;;5072443;28;20429;-54
2022/04/04 08:19:50;;;;;;;5.57;4.97;;;;;;;;;;5072469;28;20310;-53
2022/04/04 08:22:16;;;;;;;5.60;5.00;;;;;;;;;;5072449;28;20509;-54
2022/04/04 08:24:42;;;;;;;5.77;5.17;;;;;;;;;;5072369;28;20901;-54
2022/04/04 08:27:09;;;;;;;5.83;4.67;;;;;;;;;;5069052;28;20227;-55
2022/04/04 08:29:37;;;;;;;5.63;4.97;;;;;;;;;;5072250;28;20310;-54
2022/04/04 08:32:03;;;;;;;5.53;5.03;;;;;;;;;;5072031;28;20805;-56
2022/04/04 08:34:29;;;;;;;7.20;5.00;;;;;;;;;;5072132;28;20442;-56
2022/04/04 08:36:55;;;;;;;5.97;4.90;;;;;;;;;;5071780;28;20447;-55
2022/04/04 08:39:22;;;;;;;7.70;5.30;;;;;;;;;;5071367;28;20560;-55
2022/04/04 08:41:48;;;;;;;7.20;5.37;;;;;;;;;;5072156;28;20430;-55
2022/04/04 08:44:15;;;;;;;6.63;5.40;;;;;;;;;;5072130;28;20452;-57
2022/04/04 08:46:43;;;;;;;5.60;5.10;;;;;;;;;;5072122;28;20474;-55
2022/04/04 08:49:09;;;;;;;7.20;5.40;;;;;;;;;;5072347;28;20464;-57
2022/04/04 08:51:36;;;;;;;5.93;5.43;;;;;;;;;;5071933;28;20442;-57
2022/04/04 08:54:02;;;;;;;6.70;5.60;;;;;;;;;;5072242;28;20437;-55
2022/04/04 08:56:29;;;;;;;6.73;5.73;;;;;;;;;;5072248;28;20471;-55
2022/04/04 08:58:56;;;;;;;6.27;5.67;;;;;;;;;;5072047;28;20495;-56
2022/04/04 09:01:22;;;;;;;7.57;6.57;;;;;;;;;;5071950;28;20489;-56
2022/04/04 09:03:53;;;;;;;6.20;5.60;;;;;;;;;;5071363;28;20859;-57
2022/04/04 09:06:20;;;;;;;7.23;6.07;;;;;;;;;;5071292;28;20446;-54
2022/04/04 09:08:48;;;;;;;8.87;6.40;;;;;;;;;;5071918;28;20462;-56
2022/04/04 09:11:14;;;;;;;7.57;6.60;;;;;;;;;;5071803;28;20445;-57
2022/04/04 09:13:40;;;;;;;7.00;6.33;;;;;;;;;;5071953;28;20434;-56
2022/04/04 09:16:07;;;;;;;10.13;6.60;;;;;;;;;;5071828;28;20446;-56
2022/04/04 09:18:40;;;;;;;8.03;6.70;;;;;;;;;;5071856;28;20517;-56
2022/04/04 09:21:08;;;;;;;7.47;6.50;;;;;;;;;;5071649;28;20556;-55
2022/04/04 09:23:55;;;;;;;8.77;6.53;;;;;;;;;;5071535;28;20823;-56
2022/04/04 09:26:30;;;;;;;7.13;6.43;;;;;;;;;;5071789;28;20437;-57
2022/04/04 09:28:56;;;;;;;8.20;6.90;;;;;;;;;;5071825;28;20461;-59
2022/04/04 09:31:23;;;;;;;8.50;7.40;;;;;;;;;;5071622;28;20536;-56
2022/04/04 09:33:51;;;;;;;7.93;6.77;;;;;;;;;;5071758;28;20460;-59
2022/04/04 09:36:18;;;;;;;8.27;6.83;;;;;;;;;;5071683;28;20503;-57
2022/04/04 09:38:53;;;;;;;10.33;7.30;;;;;;;;;;5071824;28;20445;-60
2022/04/04 09:41:20;;;;;;;8.50;7.67;;;;;;;;;;5071313;28;20511;-60
2022/04/04 09:43:49;;;;;;;7.97;7.27;;;;;;;;;;5071841;28;20457;-58
2022/04/04 09:46:15;;;;;;;11.20;7.80;;;;;;;;;;5071648;28;20521;-60
2022/04/04 09:49:00;;;;;;;8.93;8.03;;;;;;;;;;5071627;28;20437;-62
2022/04/04 09:51:35;;;;;;;11.13;9.13;;;;;;;;;;5075031;28;20454;-59
2022/04/04 09:54:03;;;;;;;10.80;8.73;;;;;;;;;;5075425;28;20445;-58
2022/04/04 09:56:29;;;;;;;9.57;8.67;;;;;;;;;;5075335;28;20959;-58
2022/04/04 09:58:57;;;;;;;10.23;9.13;;;;;;;;;;5075353;28;20428;-58
2022/04/04 10:01:23;;;;;;;9.90;8.90;;;;;;;;;;5075165;28;20540;-59
2022/04/04 10:03:51;;;;;;;10.40;9.40;;;;;;;;;;5075291;28;20436;-59
2022/04/04 10:06:18;;;;;;;10.10;9.10;;;;;;;;;;5075078;28;20477;-59
2022/04/04 10:08:51;;;;;;;13.83;10.50;;;;;;;;;;5075329;28;20876;-59
2022/04/04 10:11:17;;;;;;;11.80;9.20;;;;;;;;;;5075065;28;20442;-60
2022/04/04 10:13:44;;;;;;;11.30;10.17;;;;;;;;;;5075138;28;20449;-58
2022/04/04 10:16:10;;;;;;;13.47;11.00;;;;;;;;;;5075025;28;20433;-60
2022/04/04 10:18:37;;;;;;;12.33;10.60;;;;;;;;;;5075019;28;20441;-59
2022/04/04 10:21:03;;;;;;;12.30;10.93;;;;;;;;;;5074698;28;20473;-60
2022/04/04 10:23:30;;;;;;;11.30;10.07;;;;;;;;;;5074509;28;20473;-46
2022/04/04 10:25:58;;;;;;;11.80;10.00;;;;;;;;;;5069930;28;20453;-59
2022/04/04 10:28:27;;;;;;;11.27;9.90;;;;;;;;;;5072582;28;20477;-60
2022/04/04 10:30:57;;;;;;;12.03;10.57;;;;;;;;;;5074352;28;20441;-59
2022/04/04 10:33:27;;;;;;;12.03;10.83;;;;;;;;;;5074155;28;20430;-59
2022/04/04 10:36:00;;;;;;;11.90;10.70;;;;;;;;;;5074552;28;20437;-58
2022/04/04 10:38:29;;;;;;;11.67;10.57;;;;;;;;;;5074185;28;20437;-57
2022/04/04 10:40:56;;;;;;;11.50;10.40;;;;;;;;;;5074399;28;20497;-60
2022/04/04 10:43:23;;;;;;;10.70;9.70;;;;;;;;;;5074112;28;20469;-59
2022/04/04 10:45:50;;;;;;;11.73;9.73;;;;;;;;;;5074189;28;20783;-62
2022/04/04 10:48:17;;;;;;;12.03;10.83;;;;;;;;;;5074301;28;20433;-60
2022/04/04 10:50:44;;;;;;;10.53;9.63;;;;;;;;;;5074361;28;20919;-60
2022/04/04 10:53:10;;;;;;;10.50;9.40;;;;;;;;;;5074141;28;20459;-59
2022/04/04 10:55:43;;;;;;;12.60;9.90;;;;;;;;;;5074054;28;20442;-57
2022/04/04 10:58:13;;;;;;;11.20;9.97;;;;;;;;;;5074313;28;20430;-59
2022/04/04 11:00:57;;;;;;;10.10;9.13;;;;;;;;;;5073743;28;20482;-60
2022/04/04 11:03:30;;;;;;;10.33;9.33;;;;;;;;;;5073760;28;20440;-61
2022/04/04 11:09:04;;;;;;;10.00;9.10;;;;;;;;;;5073993;28;20774;-58
2022/04/04 11:11:47;;;;;;;10.43;8.07;;;;;;;;;;5073751;28;20827;-58
2022/04/04 11:14:13;;;;;;;9.77;8.80;;;;;;;;;;5074032;28;20438;-57
2022/04/04 11:16:58;;;;;;;9.83;8.77;;;;;;;;;;5073719;28;20544;-53
2022/04/04 11:19:29;;;;;;;9.70;8.73;;;;;;;;;;5073362;28;20426;-57
2022/04/04 11:21:55;;;;;;;9.37;8.47;;;;;;;;;;5073776;28;20489;-57
2022/04/04 11:24:21;;;;;;;10.67;9.67;;;;;;;;;;5073555;28;20991;-59
2022/04/04 11:26:47;;;;;;;9.93;9.00;;;;;;;;;;5073491;28;20834;-56
2022/04/04 11:29:19;;;;;;;10.90;9.67;;;;;;;;;;5073487;28;20596;-58
2022/04/04 11:31:48;;;;;;;10.00;9.20;;;;;;;;;;5073581;28;20468;-60
2022/04/04 11:34:14;;;;;;;10.43;9.33;;;;;;;;;;5073485;28;20434;-60
2022/04/04 11:36:43;;;;;;;11.13;9.63;;;;;;;;;;5070537;28;20462;-58
2022/04/04 11:39:10;;;;;;;10.77;9.83;;;;;;;;;;5071553;28;20503;-57
2022/04/04 11:41:36;;;;;;;10.33;9.33;;;;;;;;;;5073060;28;20504;-59
2022/04/04 11:44:02;;;;;;;11.03;10.03;;;;;;;;;;5073240;28;20434;-58
2022/04/04 11:46:28;;;;;;;10.60;9.63;;;;;;;;;;5073083;28;20499;-59
2022/04/04 11:48:55;;;;;;;11.07;10.07;;;;;;;;;;5072983;28;20936;-57
2022/04/04 11:51:25;;;;;;;11.10;10.10;;;;;;;;;;5073316;28;20212;-56
2022/04/04 11:54:00;;;;;;;19.47;17.50;;;;;;;;;;5071423;28;20867;-57
2022/04/04 11:56:27;;;;;;;9.60;8.73;;;;;;;;;;5073101;28;20483;-58
2022/04/04 11:58:55;;;;;;;10.80;9.80;;;;;;;;;;5073182;28;20434;-58
2022/04/04 12:01:27;;;;;;;11.33;10.33;;;;;;;;;;5072786;28;20561;-57
2022/04/04 12:03:53;;;;;;;10.50;9.60;;;;;;;;;;5073044;28;20814;-59
2022/04/04 12:06:20;;;;;;;11.07;10.07;;;;;;;;;;5071534;28;20499;-60
2022/04/04 12:08:46;;;;;;;11.33;10.23;;;;;;;;;;5072797;28;20442;-60
2022/04/04 12:11:14;;;;;;;12.00;10.77;;;;;;;;;;5072860;28;20430;-59
2022/04/04 12:13:57;;;;;;;12.33;11.23;;;;;;;;;;5072058;28;20453;-60
2022/04/04 12:16:23;;;;;;;12.43;11.23;;;;;;;;;;5072638;28;20909;-58
2022/04/04 12:18:53;;;;;;;12.37;11.27;;;;;;;;;;5072584;28;20434;-60
2022/04/04 12:21:20;;;;;;;11.13;10.20;;;;;;;;;;5072464;28;20535;-60
2022/04/04 12:26:34;;;;;;;12.23;11.03;;;;;;;;;;5072074;28;20791;-56
2022/04/04 12:29:00;;;;;;;12.63;11.43;;;;;;;;;;5072726;28;20849;-58
2022/04/04 12:31:27;;;;;;;12.67;11.47;;;;;;;;;;5072247;28;20487;-61
2022/04/04 12:33:53;;;;;;;12.83;11.83;;;;;;;;;;5072456;28;20440;-57
2022/04/04 12:36:26;;;;;;;13.43;12.13;;;;;;;;;;5072070;28;20430;-59
2022/04/04 12:38:55;;;;;;;13.57;12.27;;;;;;;;;;5072277;28;20483;-60
2022/04/04 12:41:21;;;;;;;13.10;11.87;;;;;;;;;;5072234;28;20485;-58
2022/04/04 12:43:59;;;;;;;11.67;10.57;;;;;;;;;;5072095;28;20516;-58
2022/04/04 12:46:29;;;;;;;11.47;10.33;;;;;;;;;;5072254;28;20449;-58
2022/04/04 12:48:56;;;;;;;18.37;16.47;;;;;;;;;;5072269;28;20932;-59
2022/04/04 12:51:26;;;;;;;11.27;10.27;;;;;;;;;;5072086;28;20441;-59
2022/04/04 12:53:53;;;;;;;11.00;10.10;;;;;;;;;;5072237;28;20438;-57
2022/04/04 12:56:20;;;;;;;10.80;9.90;;;;;;;;;;5072067;28;20461;-59
2022/04/04 13:01:42;;;;;;;11.13;10.13;;;;;;;;;;5089537;28;20551;-58
2022/04/04 13:04:19;;;;;;;11.30;10.30;;;;;;;;;;5089319;28;20481;-59
2022/04/04 13:06:45;;;;;;;10.50;9.40;;;;;;;;;;5089695;28;20455;-58
2022/04/04 13:09:11;;;;;;;9.87;9.00;;;;;;;;;;5089262;28;20936;-57
2022/04/04 13:11:46;;;;;;;10.00;9.17;;;;;;;;;;5089286;28;20440;-60
2022/04/04 13:14:12;;;;;;;11.40;10.23;;;;;;;;;;5089501;28;20436;-59
2022/04/04 13:16:38;;;;;;;10.73;9.73;;;;;;;;;;5089218;28;20437;-59
2022/04/04 13:19:07;;;;;;;10.43;9.53;;;;;;;;;;5089276;28;20564;-59
2022/04/04 13:21:33;;;;;;;10.83;9.87;;;;;;;;;;5089084;28;20559;-60
2022/04/04 13:23:59;;;;;;;11.97;9.23;;;;;;;;;;5089242;28;20536;-60
2022/04/04 13:26:25;;;;;;;10.13;9.13;;;;;;;;;;5089072;28;20516;-60
2022/04/04 13:28:51;;;;;;;10.00;9.00;;;;;;;;;;5089036;28;20278;-59
2022/04/04 13:31:17;;;;;;;9.43;8.53;;;;;;;;;;5088734;28;20429;-58
2022/04/04 13:33:43;;;;;;;9.43;8.47;;;;;;;;;;5089042;28;20429;-59
2022/04/04 13:36:11;;;;;;;9.43;8.53;;;;;;;;;;5088212;28;20519;-58
2022/04/04 13:38:37;;;;;;;9.17;8.27;;;;;;;;;;5072878;28;20468;-62
2022/04/04 13:41:03;;;;;;;7.13;6.50;;;;;;;;;;5076879;28;20470;-60
2022/04/04 13:43:29;;;;;;;8.07;7.37;;;;;;;;;;5082560;28;20435;-59
2022/04/04 13:45:55;;;;;;;8.10;7.40;;;;;;;;;;5076508;28;20812;-59
2022/04/04 13:48:21;;;;;;;7.50;6.80;;;;;;;;;;5068296;28;20442;-60
2022/04/04 13:50:48;;;;;;;7.27;6.67;;;;;;;;;;5068392;28;20475;-58
2022/04/04 13:53:16;;;;;;;6.60;5.93;;;;;;;;;;5068460;28;20454;-61
2022/04/04 13:55:42;;;;;;;6.70;6.10;;;;;;;;;;5068337;28;20492;-58
2022/04/04 13:58:08;;;;;;;6.23;5.63;;;;;;;;;;5067944;28;20437;-59
2022/04/04 14:00:35;;;;;;;12.70;11.47;;;;;;;;;;5067795;28;20489;-60
2022/04/04 14:03:01;;;;;;;6.00;5.47;;;;;;;;;;5068181;28;20624;-59
2022/04/04 14:05:28;;;;;;;6.03;5.53;;;;;;;;;;5067795;28;20473;-59
2022/04/04 14:07:55;;;;;;;5.40;4.90;;;;;;;;;;5068126;28;20275;-59
2022/04/04 14:10:23;;;;;;;4.93;4.53;;;;;;;;;;5067556;28;20522;-59
2022/04/04 14:12:48;;;;;;;5.50;4.83;;;;;;;;;;5055577;28;20438;-58
2022/04/04 14:15:16;;;;;;;5.50;4.70;;;;;;;;;;5054818;28;20811;-59
2022/04/04 14:17:42;;;;;;;5.50;5.00;;;;;;;;;;5054715;28;20227;-57
2022/04/04 14:20:09;;;;;;;4.57;4.27;;;;;;;;;;5054493;28;20993;-61
2022/04/04 14:22:35;;;;;;;6.87;4.37;;;;;;;;;;5054441;28;20200;-59
2022/04/04 14:25:01;;;;;;;4.77;4.37;;;;;;;;;;5054639;28;20458;-59
2022/04/04 14:27:29;;;;;;;4.33;4.03;;;;;;;;;;5054391;28;20855;-58
2022/04/04 14:29:56;;;;;;;5.03;4.63;;;;;;;;;;5054388;28;20842;-57
2022/04/04 14:32:22;;;;;;;5.07;4.60;;;;;;;;;;5054346;28;20517;-59
2022/04/04 14:34:48;;;;;;;5.57;4.97;;;;;;;;;;5054027;28;20431;-57
2022/04/04 14:37:14;;;;;;;5.20;4.80;;;;;;;;;;5054007;28;20435;-57
2022/04/04 14:39:43;;;;;;;4.80;4.40;;;;;;;;;;5053714;28;20474;-59
2022/04/04 14:42:10;;;;;;;4.80;4.40;;;;;;;;;;5054147;28;20439;-59
2022/04/04 14:44:48;;;;;;;4.70;4.30;;;;;;;;;;5053818;28;20442;-58
2022/04/04 14:47:15;;;;;;;4.90;4.50;;;;;;;;;;5054257;28;20434;-59
2022/04/04 14:49:41;;;;;;;4.20;3.90;;;;;;;;;;5053911;28;20463;-58
2022/04/04 14:52:07;;;;;;;4.37;4.00;;;;;;;;;;5053949;28;20496;-59
2022/04/04 14:54:33;;;;;;;4.67;4.27;;;;;;;;;;5053784;28;20435;-59